sensor_id;sensor_type;location;lat;lon;timestamp;temperature;humidity
17703;DHT22;8970;48.104;-1.680;2022-09-01T00:00:15;21.30;99.90
17703;DHT22;8970;48.104;-1.680;2022-09-01T00:00:54;21.30;99.90
17703;DHT22;8970;48.104;-1.680;2022-09-01T00:01:31;21.20;99.90
17703;DHT22;8970;48.104;-1.680;2022-09-01T00:02:08;21.20;99.90
17703;DHT22;8970;48.104;-1.680;2022-09-01T00:02:45;21.20;99.90
17703;DHT22;8970;48.104;-1.680;2022-09-01T00:03:22;21.10;99.90
17703;DHT22;8970;48.104;-1.680;2022-09-01T00:03:59;21.20;99.90
17703;DHT22;8970;48.104;-1.680;2022-09-01T00:04:38;21.10;99.90
17703;DHT22;8970;48.104;-1.680;2022-09-01T00:05:15;21.20;99.90
17703;DHT22;8970;48.104;-1.680;2022-09-01T00:05:51;21.20;99.90
17703;DHT22;8970;48.104;-1.680;2022-09-01T00:06:30;21.20;99.90
17703;DHT22;8970;48.104;-1.680;2022-09-01T00:07:07;21.10;99.90
17703;DHT22;8970;48.104;-1.680;2022-09-01T00:07:44;21.10;99.90
17703;DHT22;8970;48.104;-1.680;2022-09-01T00:08:21;21.10;99.90
17703;DHT22;8970;48.104;-1.680;2022-09-01T00:09:41;21.10;99.90
17703;DHT22;8970;48.104;-1.680;2022-09-01T00:10:18;21.20;99.90
17703;DHT22;8970;48.104;-1.680;2022-09-01T00:10:55;21.20;99.90
17703;DHT22;8970;48.104;-1.680;2022-09-01T00:11:32;21.30;99.90
17703;DHT22;8970;48.104;-1.680;2022-09-01T00:12:52;21.30;99.90
17703;DHT22;8970;48.104;-1.680;2022-09-01T00:13:29;21.30;99.90
17703;DHT22;8970;48.104;-1.680;2022-09-01T00:14:09;21.30;99.90
17703;DHT22;8970;48.104;-1.680;2022-09-01T00:14:46;21.30;99.90
17703;DHT22;8970;48.104;-1.680;2022-09-01T00:15:23;21.30;99.90
17703;DHT22;8970;48.104;-1.680;2022-09-01T00:16:00;21.30;99.90
17703;DHT22;8970;48.104;-1.680;2022-09-01T00:17:21;21.30;99.90
17703;DHT22;8970;48.104;-1.680;2022-09-01T00:17:59;21.20;99.90
17703;DHT22;8970;48.104;-1.680;2022-09-01T00:18:35;21.20;99.90
17703;DHT22;8970;48.104;-1.680;2022-09-01T00:19:12;21.20;99.90
17703;DHT22;8970;48.104;-1.680;2022-09-01T00:19:49;21.20;99.90
17703;DHT22;8970;48.104;-1.680;2022-09-01T00:20:26;21.20;99.90
17703;DHT22;8970;48.104;-1.680;2022-09-01T00:21:04;21.20;99.90
17703;DHT22;8970;48.104;-1.680;2022-09-01T00:21:43;21.20;99.90
17703;DHT22;8970;48.104;-1.680;2022-09-01T00:22:20;21.20;99.90
17703;DHT22;8970;48.104;-1.680;2022-09-01T00:22:56;21.20;99.90
17703;DHT22;8970;48.104;-1.680;2022-09-01T00:23:34;21.20;99.90
17703;DHT22;8970;48.104;-1.680;2022-09-01T00:24:12;21.20;99.90
17703;DHT22;8970;48.104;-1.680;2022-09-01T00:24:50;21.20;99.90
17703;DHT22;8970;48.104;-1.680;2022-09-01T00:25:27;21.10;99.90
17703;DHT22;8970;48.104;-1.680;2022-09-01T00:26:05;21.10;99.90
17703;DHT22;8970;48.104;-1.680;2022-09-01T00:26:42;21.00;99.90
17703;DHT22;8970;48.104;-1.680;2022-09-01T00:27:18;21.00;99.90
17703;DHT22;8970;48.104;-1.680;2022-09-01T00:27:55;21.10;99.90
17703;DHT22;8970;48.104;-1.680;2022-09-01T00:28:35;21.10;99.90
17703;DHT22;8970;48.104;-1.680;2022-09-01T00:29:55;21.10;99.90
17703;DHT22;8970;48.104;-1.680;2022-09-01T00:30:31;21.00;99.90
17703;DHT22;8970;48.104;-1.680;2022-09-01T00:31:08;21.00;99.90
17703;DHT22;8970;48.104;-1.680;2022-09-01T00:31:45;21.10;99.90
17703;DHT22;8970;48.104;-1.680;2022-09-01T00:32:22;21.10;99.90
17703;DHT22;8970;48.104;-1.680;2022-09-01T00:33:41;21.10;99.90
17703;DHT22;8970;48.104;-1.680;2022-09-01T00:34:18;21.10;99.90
17703;DHT22;8970;48.104;-1.680;2022-09-01T00:34:56;21.20;99.90
17703;DHT22;8970;48.104;-1.680;2022-09-01T00:35:33;21.10;99.90
17703;DHT22;8970;48.104;-1.680;2022-09-01T00:36:09;21.10;99.90
17703;DHT22;8970;48.104;-1.680;2022-09-01T00:36:46;21.10;99.90
17703;DHT22;8970;48.104;-1.680;2022-09-01T00:37:23;21.20;99.90
17703;DHT22;8970;48.104;-1.680;2022-09-01T00:38:00;21.10;99.90
17703;DHT22;8970;48.104;-1.680;2022-09-01T00:38:38;21.10;99.90
17703;DHT22;8970;48.104;-1.680;2022-09-01T00:39:57;21.10;99.90
17703;DHT22;8970;48.104;-1.680;2022-09-01T00:40:35;21.00;99.90
17703;DHT22;8970;48.104;-1.680;2022-09-01T00:41:13;21.00;99.90
17703;DHT22;8970;48.104;-1.680;2022-09-01T00:41:51;21.00;99.90
17703;DHT22;8970;48.104;-1.680;2022-09-01T00:42:27;20.90;99.90
17703;DHT22;8970;48.104;-1.680;2022-09-01T00:43:12;20.90;99.90
17703;DHT22;8970;48.104;-1.680;2022-09-01T00:43:51;20.90;99.90
17703;DHT22;8970;48.104;-1.680;2022-09-01T00:44:28;20.90;99.90
17703;DHT22;8970;48.104;-1.680;2022-09-01T00:45:08;20.90;99.90
17703;DHT22;8970;48.104;-1.680;2022-09-01T00:45:45;20.80;99.90
17703;DHT22;8970;48.104;-1.680;2022-09-01T00:47:05;20.80;99.90
17703;DHT22;8970;48.104;-1.680;2022-09-01T00:47:43;20.90;99.90
17703;DHT22;8970;48.104;-1.680;2022-09-01T00:48:19;20.90;99.90
17703;DHT22;8970;48.104;-1.680;2022-09-01T00:49:00;20.80;99.90
17703;DHT22;8970;48.104;-1.680;2022-09-01T00:50:20;20.90;99.90
17703;DHT22;8970;48.104;-1.680;2022-09-01T00:50:56;20.90;99.90
17703;DHT22;8970;48.104;-1.680;2022-09-01T00:51:35;20.90;99.90
17703;DHT22;8970;48.104;-1.680;2022-09-01T00:52:56;20.90;99.90
17703;DHT22;8970;48.104;-1.680;2022-09-01T00:53:33;20.90;99.90
17703;DHT22;8970;48.104;-1.680;2022-09-01T00:54:12;20.90;99.90
17703;DHT22;8970;48.104;-1.680;2022-09-01T00:55:36;20.80;99.90
17703;DHT22;8970;48.104;-1.680;2022-09-01T00:56:13;20.80;99.90
17703;DHT22;8970;48.104;-1.680;2022-09-01T00:56:50;20.80;99.90
17703;DHT22;8970;48.104;-1.680;2022-09-01T00:57:28;20.80;99.90
17703;DHT22;8970;48.104;-1.680;2022-09-01T00:58:06;20.80;99.90
17703;DHT22;8970;48.104;-1.680;2022-09-01T00:58:43;20.70;99.90
17703;DHT22;8970;48.104;-1.680;2022-09-01T00:59:21;20.70;99.90
17703;DHT22;8970;48.104;-1.680;2022-09-01T01:00:01;20.70;99.90
17703;DHT22;8970;48.104;-1.680;2022-09-01T01:00:38;20.70;99.90
17703;DHT22;8970;48.104;-1.680;2022-09-01T01:01:16;20.70;99.90
17703;DHT22;8970;48.104;-1.680;2022-09-01T01:01:54;20.70;99.90
17703;DHT22;8970;48.104;-1.680;2022-09-01T01:02:32;20.70;99.90
17703;DHT22;8970;48.104;-1.680;2022-09-01T01:03:10;20.70;99.90
17703;DHT22;8970;48.104;-1.680;2022-09-01T01:03:47;20.70;99.90
17703;DHT22;8970;48.104;-1.680;2022-09-01T01:04:24;20.70;99.90
17703;DHT22;8970;48.104;-1.680;2022-09-01T01:05:02;20.70;99.90
17703;DHT22;8970;48.104;-1.680;2022-09-01T01:05:42;20.70;99.90
17703;DHT22;8970;48.104;-1.680;2022-09-01T01:06:20;20.70;99.90
17703;DHT22;8970;48.104;-1.680;2022-09-01T01:06:59;20.60;99.90
17703;DHT22;8970;48.104;-1.680;2022-09-01T01:07:37;20.60;99.90
17703;DHT22;8970;48.104;-1.680;2022-09-01T01:08:15;20.60;99.90
17703;DHT22;8970;48.104;-1.680;2022-09-01T01:08:53;20.60;99.90
17703;DHT22;8970;48.104;-1.680;2022-09-01T01:10:18;20.60;99.90
17703;DHT22;8970;48.104;-1.680;2022-09-01T01:10:57;20.50;99.90
17703;DHT22;8970;48.104;-1.680;2022-09-01T01:11:33;20.50;99.90
17703;DHT22;8970;48.104;-1.680;2022-09-01T01:12:51;20.50;99.90
17703;DHT22;8970;48.104;-1.680;2022-09-01T01:13:28;20.50;99.90
17703;DHT22;8970;48.104;-1.680;2022-09-01T01:14:08;20.50;99.90
17703;DHT22;8970;48.104;-1.680;2022-09-01T01:15:31;20.50;99.90
17703;DHT22;8970;48.104;-1.680;2022-09-01T01:16:07;20.50;99.90
17703;DHT22;8970;48.104;-1.680;2022-09-01T01:16:47;20.50;99.90
17703;DHT22;8970;48.104;-1.680;2022-09-01T01:18:11;20.40;99.90
17703;DHT22;8970;48.104;-1.680;2022-09-01T01:18:48;20.40;99.90
17703;DHT22;8970;48.104;-1.680;2022-09-01T01:19:30;20.40;99.90
17703;DHT22;8970;48.104;-1.680;2022-09-01T01:20:26;20.40;99.90
17703;DHT22;8970;48.104;-1.680;2022-09-01T01:21:24;20.30;99.90
17703;DHT22;8970;48.104;-1.680;2022-09-01T01:22:21;20.40;99.90
17703;DHT22;8970;48.104;-1.680;2022-09-01T01:24:08;20.30;99.90
17703;DHT22;8970;48.104;-1.680;2022-09-01T01:24:45;20.40;99.90
17703;DHT22;8970;48.104;-1.680;2022-09-01T01:25:22;20.40;99.90
17703;DHT22;8970;48.104;-1.680;2022-09-01T01:26:00;20.40;99.90
17703;DHT22;8970;48.104;-1.680;2022-09-01T01:27:17;20.50;99.90
17703;DHT22;8970;48.104;-1.680;2022-09-01T01:28:05;20.50;99.90
17703;DHT22;8970;48.104;-1.680;2022-09-01T01:29:23;20.50;99.90
17703;DHT22;8970;48.104;-1.680;2022-09-01T01:30:02;20.50;99.90
17703;DHT22;8970;48.104;-1.680;2022-09-01T01:31:25;20.50;99.90
17703;DHT22;8970;48.104;-1.680;2022-09-01T01:32:02;20.50;99.90
17703;DHT22;8970;48.104;-1.680;2022-09-01T01:32:40;20.50;99.90
17703;DHT22;8970;48.104;-1.680;2022-09-01T01:33:17;20.50;99.90
17703;DHT22;8970;48.104;-1.680;2022-09-01T01:33:56;20.50;99.90
17703;DHT22;8970;48.104;-1.680;2022-09-01T01:34:33;20.50;99.90
17703;DHT22;8970;48.104;-1.680;2022-09-01T01:35:11;20.50;99.90
17703;DHT22;8970;48.104;-1.680;2022-09-01T01:35:49;20.50;99.90
17703;DHT22;8970;48.104;-1.680;2022-09-01T01:36:29;20.50;99.90
17703;DHT22;8970;48.104;-1.680;2022-09-01T01:37:06;20.50;99.90
17703;DHT22;8970;48.104;-1.680;2022-09-01T01:37:45;20.40;99.90
17703;DHT22;8970;48.104;-1.680;2022-09-01T01:38:23;20.50;99.90
17703;DHT22;8970;48.104;-1.680;2022-09-01T01:39:03;20.50;99.90
17703;DHT22;8970;48.104;-1.680;2022-09-01T01:39:41;20.40;99.90
17703;DHT22;8970;48.104;-1.680;2022-09-01T01:40:59;20.40;99.90
17703;DHT22;8970;48.104;-1.680;2022-09-01T01:41:41;20.40;99.90
17703;DHT22;8970;48.104;-1.680;2022-09-01T01:42:18;20.40;99.90
17703;DHT22;8970;48.104;-1.680;2022-09-01T01:42:54;20.40;99.90
17703;DHT22;8970;48.104;-1.680;2022-09-01T01:43:32;20.40;99.90
17703;DHT22;8970;48.104;-1.680;2022-09-01T01:44:08;20.40;99.90
17703;DHT22;8970;48.104;-1.680;2022-09-01T01:45:28;20.50;99.90
17703;DHT22;8970;48.104;-1.680;2022-09-01T01:46:06;20.50;99.90
17703;DHT22;8970;48.104;-1.680;2022-09-01T01:47:24;20.50;99.90
17703;DHT22;8970;48.104;-1.680;2022-09-01T01:48:01;20.50;99.90
17703;DHT22;8970;48.104;-1.680;2022-09-01T01:49:26;20.50;99.90
17703;DHT22;8970;48.104;-1.680;2022-09-01T01:50:07;20.50;99.90
17703;DHT22;8970;48.104;-1.680;2022-09-01T01:50:43;20.50;99.90
17703;DHT22;8970;48.104;-1.680;2022-09-01T01:51:22;20.50;99.90
17703;DHT22;8970;48.104;-1.680;2022-09-01T01:52:02;20.50;99.90
17703;DHT22;8970;48.104;-1.680;2022-09-01T01:52:39;20.50;99.90
17703;DHT22;8970;48.104;-1.680;2022-09-01T01:53:16;20.50;99.90
17703;DHT22;8970;48.104;-1.680;2022-09-01T01:53:53;20.50;99.90
17703;DHT22;8970;48.104;-1.680;2022-09-01T01:54:30;20.50;99.90
17703;DHT22;8970;48.104;-1.680;2022-09-01T01:55:09;20.50;99.90
17703;DHT22;8970;48.104;-1.680;2022-09-01T01:55:47;20.50;99.90
17703;DHT22;8970;48.104;-1.680;2022-09-01T01:56:24;20.50;99.90
17703;DHT22;8970;48.104;-1.680;2022-09-01T01:57:02;20.50;99.90
17703;DHT22;8970;48.104;-1.680;2022-09-01T01:57:40;20.50;99.90
17703;DHT22;8970;48.104;-1.680;2022-09-01T01:58:19;20.50;99.90
17703;DHT22;8970;48.104;-1.680;2022-09-01T01:58:57;20.50;99.90
17703;DHT22;8970;48.104;-1.680;2022-09-01T01:59:35;20.50;99.90
17703;DHT22;8970;48.104;-1.680;2022-09-01T02:00:13;20.50;99.90
17703;DHT22;8970;48.104;-1.680;2022-09-01T02:00:54;20.50;99.90
17703;DHT22;8970;48.104;-1.680;2022-09-01T02:01:31;20.50;99.90
17703;DHT22;8970;48.104;-1.680;2022-09-01T02:02:07;20.50;99.90
17703;DHT22;8970;48.104;-1.680;2022-09-01T02:02:47;20.40;99.90
17703;DHT22;8970;48.104;-1.680;2022-09-01T02:03:30;20.40;99.90
17703;DHT22;8970;48.104;-1.680;2022-09-01T02:04:05;20.40;99.90
17703;DHT22;8970;48.104;-1.680;2022-09-01T02:04:42;20.30;99.90
17703;DHT22;8970;48.104;-1.680;2022-09-01T02:05:20;20.30;99.90
17703;DHT22;8970;48.104;-1.680;2022-09-01T02:06:00;20.30;99.90
17703;DHT22;8970;48.104;-1.680;2022-09-01T02:06:38;20.30;99.90
17703;DHT22;8970;48.104;-1.680;2022-09-01T02:07:15;20.30;99.90
17703;DHT22;8970;48.104;-1.680;2022-09-01T02:08:37;20.20;99.90
17703;DHT22;8970;48.104;-1.680;2022-09-01T02:09:17;20.20;99.90
17703;DHT22;8970;48.104;-1.680;2022-09-01T02:09:54;20.20;99.90
17703;DHT22;8970;48.104;-1.680;2022-09-01T02:10:34;20.10;99.90
17703;DHT22;8970;48.104;-1.680;2022-09-01T02:11:53;20.10;99.90
17703;DHT22;8970;48.104;-1.680;2022-09-01T02:12:31;20.10;99.90
17703;DHT22;8970;48.104;-1.680;2022-09-01T02:13:51;20.10;99.90
17703;DHT22;8970;48.104;-1.680;2022-09-01T02:14:30;20.10;99.90
17703;DHT22;8970;48.104;-1.680;2022-09-01T02:15:10;20.10;99.90
17703;DHT22;8970;48.104;-1.680;2022-09-01T02:16:31;20.20;99.90
17703;DHT22;8970;48.104;-1.680;2022-09-01T02:17:09;20.20;99.90
17703;DHT22;8970;48.104;-1.680;2022-09-01T02:17:46;20.20;99.90
17703;DHT22;8970;48.104;-1.680;2022-09-01T02:18:24;20.20;99.90
17703;DHT22;8970;48.104;-1.680;2022-09-01T02:19:03;20.20;99.90
17703;DHT22;8970;48.104;-1.680;2022-09-01T02:19:41;20.20;99.90
17703;DHT22;8970;48.104;-1.680;2022-09-01T02:20:17;20.20;99.90
17703;DHT22;8970;48.104;-1.680;2022-09-01T02:20:56;20.10;99.90
17703;DHT22;8970;48.104;-1.680;2022-09-01T02:22:16;20.10;99.90
17703;DHT22;8970;48.104;-1.680;2022-09-01T02:22:54;20.10;99.90
17703;DHT22;8970;48.104;-1.680;2022-09-01T02:23:30;20.00;99.90
17703;DHT22;8970;48.104;-1.680;2022-09-01T02:24:08;20.00;99.90
17703;DHT22;8970;48.104;-1.680;2022-09-01T02:24:45;20.00;99.90
17703;DHT22;8970;48.104;-1.680;2022-09-01T02:26:08;20.00;99.90
17703;DHT22;8970;48.104;-1.680;2022-09-01T02:26:45;20.00;99.90
17703;DHT22;8970;48.104;-1.680;2022-09-01T02:27:23;20.00;99.90
17703;DHT22;8970;48.104;-1.680;2022-09-01T02:28:01;20.00;99.90
17703;DHT22;8970;48.104;-1.680;2022-09-01T02:28:39;20.00;99.90
17703;DHT22;8970;48.104;-1.680;2022-09-01T02:29:19;20.00;99.90
17703;DHT22;8970;48.104;-1.680;2022-09-01T02:29:56;20.00;99.90
17703;DHT22;8970;48.104;-1.680;2022-09-01T02:31:15;20.00;99.90
17703;DHT22;8970;48.104;-1.680;2022-09-01T02:31:54;20.00;99.90
17703;DHT22;8970;48.104;-1.680;2022-09-01T02:32:31;20.00;99.90
17703;DHT22;8970;48.104;-1.680;2022-09-01T02:33:07;20.00;99.90
17703;DHT22;8970;48.104;-1.680;2022-09-01T02:33:44;20.00;99.90
17703;DHT22;8970;48.104;-1.680;2022-09-01T02:34:22;20.00;99.90
17703;DHT22;8970;48.104;-1.680;2022-09-01T02:35:01;20.00;99.90
17703;DHT22;8970;48.104;-1.680;2022-09-01T02:35:39;20.00;99.90
17703;DHT22;8970;48.104;-1.680;2022-09-01T02:36:18;20.00;99.90
17703;DHT22;8970;48.104;-1.680;2022-09-01T02:36:55;20.00;99.90
17703;DHT22;8970;48.104;-1.680;2022-09-01T02:37:32;20.00;99.90
17703;DHT22;8970;48.104;-1.680;2022-09-01T02:38:09;19.90;99.90
17703;DHT22;8970;48.104;-1.680;2022-09-01T02:38:47;19.90;99.90
17703;DHT22;8970;48.104;-1.680;2022-09-01T02:40:10;19.90;99.90
17703;DHT22;8970;48.104;-1.680;2022-09-01T02:40:47;19.90;99.90
17703;DHT22;8970;48.104;-1.680;2022-09-01T02:42:06;19.90;99.90
17703;DHT22;8970;48.104;-1.680;2022-09-01T02:42:44;19.90;99.90
17703;DHT22;8970;48.104;-1.680;2022-09-01T02:43:23;19.90;99.90
17703;DHT22;8970;48.104;-1.680;2022-09-01T02:44:02;19.90;99.90
17703;DHT22;8970;48.104;-1.680;2022-09-01T02:44:39;19.90;99.90
17703;DHT22;8970;48.104;-1.680;2022-09-01T02:45:18;19.80;99.90
17703;DHT22;8970;48.104;-1.680;2022-09-01T02:45:56;19.80;99.90
17703;DHT22;8970;48.104;-1.680;2022-09-01T02:47:14;19.80;99.90
17703;DHT22;8970;48.104;-1.680;2022-09-01T02:47:51;19.80;99.90
17703;DHT22;8970;48.104;-1.680;2022-09-01T02:49:16;19.80;99.90
17703;DHT22;8970;48.104;-1.680;2022-09-01T02:49:54;19.80;99.90
17703;DHT22;8970;48.104;-1.680;2022-09-01T02:50:30;19.80;99.90
17703;DHT22;8970;48.104;-1.680;2022-09-01T02:51:10;19.80;99.90
17703;DHT22;8970;48.104;-1.680;2022-09-01T02:51:49;19.80;99.90
17703;DHT22;8970;48.104;-1.680;2022-09-01T02:52:28;19.80;99.90
17703;DHT22;8970;48.104;-1.680;2022-09-01T02:53:06;19.80;99.90
17703;DHT22;8970;48.104;-1.680;2022-09-01T02:53:45;19.80;99.90
17703;DHT22;8970;48.104;-1.680;2022-09-01T02:54:25;19.90;99.90
17703;DHT22;8970;48.104;-1.680;2022-09-01T02:55:02;19.90;99.90
17703;DHT22;8970;48.104;-1.680;2022-09-01T02:55:40;19.90;99.90
17703;DHT22;8970;48.104;-1.680;2022-09-01T02:56:17;19.90;99.90
17703;DHT22;8970;48.104;-1.680;2022-09-01T02:56:54;19.90;99.90
17703;DHT22;8970;48.104;-1.680;2022-09-01T02:57:32;19.90;99.90
17703;DHT22;8970;48.104;-1.680;2022-09-01T02:58:09;19.90;99.90
17703;DHT22;8970;48.104;-1.680;2022-09-01T02:58:47;19.90;99.90
17703;DHT22;8970;48.104;-1.680;2022-09-01T02:59:26;19.90;99.90
17703;DHT22;8970;48.104;-1.680;2022-09-01T03:00:07;19.90;99.90
17703;DHT22;8970;48.104;-1.680;2022-09-01T03:01:34;19.90;99.90
17703;DHT22;8970;48.104;-1.680;2022-09-01T03:02:10;19.90;99.90
17703;DHT22;8970;48.104;-1.680;2022-09-01T03:02:49;19.90;99.90
17703;DHT22;8970;48.104;-1.680;2022-09-01T03:03:27;19.90;99.90
17703;DHT22;8970;48.104;-1.680;2022-09-01T03:04:05;19.90;99.90
17703;DHT22;8970;48.104;-1.680;2022-09-01T03:04:43;19.90;99.90
17703;DHT22;8970;48.104;-1.680;2022-09-01T03:05:23;19.90;99.90
17703;DHT22;8970;48.104;-1.680;2022-09-01T03:06:01;19.90;99.90
17703;DHT22;8970;48.104;-1.680;2022-09-01T03:06:39;19.90;99.90
17703;DHT22;8970;48.104;-1.680;2022-09-01T03:08:00;19.90;99.90
17703;DHT22;8970;48.104;-1.680;2022-09-01T03:08:37;19.80;99.90
17703;DHT22;8970;48.104;-1.680;2022-09-01T03:09:16;19.90;99.90
17703;DHT22;8970;48.104;-1.680;2022-09-01T03:09:53;19.80;99.90
17703;DHT22;8970;48.104;-1.680;2022-09-01T03:10:32;19.80;99.90
17703;DHT22;8970;48.104;-1.680;2022-09-01T03:11:53;19.80;99.90
17703;DHT22;8970;48.104;-1.680;2022-09-01T03:12:30;19.80;99.90
17703;DHT22;8970;48.104;-1.680;2022-09-01T03:13:09;19.80;99.90
17703;DHT22;8970;48.104;-1.680;2022-09-01T03:14:30;19.80;99.90
17703;DHT22;8970;48.104;-1.680;2022-09-01T03:15:08;19.80;99.90
17703;DHT22;8970;48.104;-1.680;2022-09-01T03:15:46;19.90;99.90
17703;DHT22;8970;48.104;-1.680;2022-09-01T03:17:05;19.90;99.90
17703;DHT22;8970;48.104;-1.680;2022-09-01T03:17:42;19.90;99.90
17703;DHT22;8970;48.104;-1.680;2022-09-01T03:18:19;19.80;99.90
17703;DHT22;8970;48.104;-1.680;2022-09-01T03:18:56;19.80;99.90
17703;DHT22;8970;48.104;-1.680;2022-09-01T03:19:33;19.80;99.90
17703;DHT22;8970;48.104;-1.680;2022-09-01T03:20:55;19.80;99.90
17703;DHT22;8970;48.104;-1.680;2022-09-01T03:21:32;19.80;99.90
17703;DHT22;8970;48.104;-1.680;2022-09-01T03:22:53;19.80;99.90
17703;DHT22;8970;48.104;-1.680;2022-09-01T03:23:32;19.80;99.90
17703;DHT22;8970;48.104;-1.680;2022-09-01T03:24:10;19.80;99.90
17703;DHT22;8970;48.104;-1.680;2022-09-01T03:24:48;19.90;99.90
17703;DHT22;8970;48.104;-1.680;2022-09-01T03:25:25;19.90;99.90
17703;DHT22;8970;48.104;-1.680;2022-09-01T03:26:46;19.90;99.90
17703;DHT22;8970;48.104;-1.680;2022-09-01T03:27:24;19.90;99.90
17703;DHT22;8970;48.104;-1.680;2022-09-01T03:28:04;19.90;99.90
17703;DHT22;8970;48.104;-1.680;2022-09-01T03:28:41;19.90;99.90
17703;DHT22;8970;48.104;-1.680;2022-09-01T03:29:18;19.90;99.90
17703;DHT22;8970;48.104;-1.680;2022-09-01T03:29:56;19.90;99.90
17703;DHT22;8970;48.104;-1.680;2022-09-01T03:30:34;19.90;99.90
17703;DHT22;8970;48.104;-1.680;2022-09-01T03:31:55;19.90;99.90
17703;DHT22;8970;48.104;-1.680;2022-09-01T03:32:32;20.00;99.90
17703;DHT22;8970;48.104;-1.680;2022-09-01T03:33:10;20.00;99.90
17703;DHT22;8970;48.104;-1.680;2022-09-01T03:33:46;20.00;99.90
17703;DHT22;8970;48.104;-1.680;2022-09-01T03:34:23;19.90;99.90
17703;DHT22;8970;48.104;-1.680;2022-09-01T03:35:01;20.00;99.90
17703;DHT22;8970;48.104;-1.680;2022-09-01T03:35:38;20.00;99.90
17703;DHT22;8970;48.104;-1.680;2022-09-01T03:36:14;19.90;99.90
17703;DHT22;8970;48.104;-1.680;2022-09-01T03:36:54;20.00;99.90
17703;DHT22;8970;48.104;-1.680;2022-09-01T03:38:13;20.00;99.90
17703;DHT22;8970;48.104;-1.680;2022-09-01T03:38:53;19.90;99.90
17703;DHT22;8970;48.104;-1.680;2022-09-01T03:39:30;19.90;99.90
17703;DHT22;8970;48.104;-1.680;2022-09-01T03:40:10;19.80;99.90
17703;DHT22;8970;48.104;-1.680;2022-09-01T03:40:47;19.80;99.90
17703;DHT22;8970;48.104;-1.680;2022-09-01T03:42:09;19.70;99.90
17703;DHT22;8970;48.104;-1.680;2022-09-01T03:42:46;19.70;99.90
17703;DHT22;8970;48.104;-1.680;2022-09-01T03:43:23;19.80;99.90
17703;DHT22;8970;48.104;-1.680;2022-09-01T03:44:01;19.80;99.90
17703;DHT22;8970;48.104;-1.680;2022-09-01T03:44:38;19.80;99.90
17703;DHT22;8970;48.104;-1.680;2022-09-01T03:45:16;19.70;99.90
17703;DHT22;8970;48.104;-1.680;2022-09-01T03:46:37;19.80;99.90
17703;DHT22;8970;48.104;-1.680;2022-09-01T03:47:56;19.80;99.90
17703;DHT22;8970;48.104;-1.680;2022-09-01T03:48:32;19.80;99.90
17703;DHT22;8970;48.104;-1.680;2022-09-01T03:49:11;19.80;99.90
17703;DHT22;8970;48.104;-1.680;2022-09-01T03:50:31;19.80;99.90
17703;DHT22;8970;48.104;-1.680;2022-09-01T03:51:08;19.80;99.90
17703;DHT22;8970;48.104;-1.680;2022-09-01T03:51:46;19.80;99.90
17703;DHT22;8970;48.104;-1.680;2022-09-01T03:53:06;19.70;99.90
17703;DHT22;8970;48.104;-1.680;2022-09-01T03:53:43;19.70;99.90
17703;DHT22;8970;48.104;-1.680;2022-09-01T03:54:21;19.70;99.90
17703;DHT22;8970;48.104;-1.680;2022-09-01T03:54:59;19.80;99.90
17703;DHT22;8970;48.104;-1.680;2022-09-01T03:55:36;19.80;99.90
17703;DHT22;8970;48.104;-1.680;2022-09-01T03:56:13;19.80;99.90
17703;DHT22;8970;48.104;-1.680;2022-09-01T03:56:50;19.80;99.90
17703;DHT22;8970;48.104;-1.680;2022-09-01T03:57:27;19.80;99.90
17703;DHT22;8970;48.104;-1.680;2022-09-01T03:58:06;19.80;99.90
17703;DHT22;8970;48.104;-1.680;2022-09-01T03:58:43;19.70;99.90
17703;DHT22;8970;48.104;-1.680;2022-09-01T03:59:21;19.70;99.90
17703;DHT22;8970;48.104;-1.680;2022-09-01T04:00:00;19.70;99.90
17703;DHT22;8970;48.104;-1.680;2022-09-01T04:00:40;19.70;99.90
17703;DHT22;8970;48.104;-1.680;2022-09-01T04:01:16;19.70;99.90
17703;DHT22;8970;48.104;-1.680;2022-09-01T04:01:53;19.70;99.90
17703;DHT22;8970;48.104;-1.680;2022-09-01T04:02:30;19.70;99.90
17703;DHT22;8970;48.104;-1.680;2022-09-01T04:03:08;19.70;99.90
17703;DHT22;8970;48.104;-1.680;2022-09-01T04:03:46;19.70;99.90
17703;DHT22;8970;48.104;-1.680;2022-09-01T04:04:23;19.70;99.90
17703;DHT22;8970;48.104;-1.680;2022-09-01T04:05:00;19.70;99.90
17703;DHT22;8970;48.104;-1.680;2022-09-01T04:05:37;19.70;99.90
17703;DHT22;8970;48.104;-1.680;2022-09-01T04:06:15;19.70;99.90
17703;DHT22;8970;48.104;-1.680;2022-09-01T04:06:53;19.70;99.90
17703;DHT22;8970;48.104;-1.680;2022-09-01T04:07:30;19.70;99.90
17703;DHT22;8970;48.104;-1.680;2022-09-01T04:08:08;19.70;99.90
17703;DHT22;8970;48.104;-1.680;2022-09-01T04:08:46;19.70;99.90
17703;DHT22;8970;48.104;-1.680;2022-09-01T04:09:22;19.70;99.90
17703;DHT22;8970;48.104;-1.680;2022-09-01T04:09:59;19.70;99.90
17703;DHT22;8970;48.104;-1.680;2022-09-01T04:10:46;19.70;99.90
17703;DHT22;8970;48.104;-1.680;2022-09-01T04:11:17;19.70;99.90
17703;DHT22;8970;48.104;-1.680;2022-09-01T04:11:55;19.70;99.90
17703;DHT22;8970;48.104;-1.680;2022-09-01T04:13:20;19.70;99.90
17703;DHT22;8970;48.104;-1.680;2022-09-01T04:13:57;19.70;99.90
17703;DHT22;8970;48.104;-1.680;2022-09-01T04:14:34;19.60;99.90
17703;DHT22;8970;48.104;-1.680;2022-09-01T04:15:55;19.60;99.90
17703;DHT22;8970;48.104;-1.680;2022-09-01T04:16:33;19.60;99.90
17703;DHT22;8970;48.104;-1.680;2022-09-01T04:18:10;19.50;99.90
17703;DHT22;8970;48.104;-1.680;2022-09-01T04:18:49;19.50;99.90
17703;DHT22;8970;48.104;-1.680;2022-09-01T04:19:26;19.50;99.90
17703;DHT22;8970;48.104;-1.680;2022-09-01T04:20:07;19.50;99.90
17703;DHT22;8970;48.104;-1.680;2022-09-01T04:21:28;19.50;99.90
17703;DHT22;8970;48.104;-1.680;2022-09-01T04:22:06;19.50;99.90
17703;DHT22;8970;48.104;-1.680;2022-09-01T04:22:44;19.50;99.90
17703;DHT22;8970;48.104;-1.680;2022-09-01T04:24:06;19.50;99.90
17703;DHT22;8970;48.104;-1.680;2022-09-01T04:24:44;19.50;99.90
17703;DHT22;8970;48.104;-1.680;2022-09-01T04:25:21;19.50;99.90
17703;DHT22;8970;48.104;-1.680;2022-09-01T04:26:01;19.50;99.90
17703;DHT22;8970;48.104;-1.680;2022-09-01T04:27:33;19.50;99.90
17703;DHT22;8970;48.104;-1.680;2022-09-01T04:28:11;19.50;99.90
17703;DHT22;8970;48.104;-1.680;2022-09-01T04:28:50;19.50;99.90
17703;DHT22;8970;48.104;-1.680;2022-09-01T04:30:10;19.60;99.90
17703;DHT22;8970;48.104;-1.680;2022-09-01T04:30:46;19.60;99.90
17703;DHT22;8970;48.104;-1.680;2022-09-01T04:31:24;19.60;99.90
17703;DHT22;8970;48.104;-1.680;2022-09-01T04:32:04;19.60;99.90
17703;DHT22;8970;48.104;-1.680;2022-09-01T04:32:40;19.60;99.90
17703;DHT22;8970;48.104;-1.680;2022-09-01T04:33:18;19.60;99.90
17703;DHT22;8970;48.104;-1.680;2022-09-01T04:34:38;19.60;99.90
17703;DHT22;8970;48.104;-1.680;2022-09-01T04:35:15;19.60;99.90
17703;DHT22;8970;48.104;-1.680;2022-09-01T04:35:53;19.60;99.90
17703;DHT22;8970;48.104;-1.680;2022-09-01T04:36:30;19.60;99.90
17703;DHT22;8970;48.104;-1.680;2022-09-01T04:37:10;19.60;99.90
17703;DHT22;8970;48.104;-1.680;2022-09-01T04:37:48;19.60;99.90
17703;DHT22;8970;48.104;-1.680;2022-09-01T04:38:25;19.60;99.90
17703;DHT22;8970;48.104;-1.680;2022-09-01T04:39:04;19.60;99.90
17703;DHT22;8970;48.104;-1.680;2022-09-01T04:39:43;19.60;99.90
17703;DHT22;8970;48.104;-1.680;2022-09-01T04:40:22;19.50;99.90
17703;DHT22;8970;48.104;-1.680;2022-09-01T04:41:01;19.50;99.90